sensor_id;sensor_type;location;lat;lon;timestamp;pressure;altitude;pressure_sealevel;temperature;humidity
11936;BME280;6027;48.576;9.180;2022-07-05T00:01:57;97177.06;;;17.76;100.00
11936;BME280;6027;48.576;9.180;2022-07-05T00:04:23;97178.22;;;17.62;100.00
11936;BME280;6027;48.576;9.180;2022-07-05T00:06:48;97178.03;;;17.57;100.00
11936;BME280;6027;48.576;9.180;2022-07-05T00:09:33;97174.31;;;17.58;100.00
11936;BME280;6027;48.576;9.180;2022-07-05T00:11:58;97168.72;;;17.66;100.00
11936;BME280;6027;48.576;9.180;2022-07-05T00:14:24;97174.31;;;17.65;100.00
11936;BME280;6027;48.576;9.180;2022-07-05T00:16:49;97172.25;;;17.60;100.00
11936;BME280;6027;48.576;9.180;2022-07-05T00:19:15;97168.66;;;17.48;100.00
11936;BME280;6027;48.576;9.180;2022-07-05T00:21:41;97170.38;;;17.36;100.00
11936;BME280;6027;48.576;9.180;2022-07-05T00:24:07;97164.00;;;17.37;100.00
11936;BME280;6027;48.576;9.180;2022-07-05T00:26:32;97157.50;;;17.26;100.00
11936;BME280;6027;48.576;9.180;2022-07-05T00:28:58;97169.84;;;17.27;100.00
11936;BME280;6027;48.576;9.180;2022-07-05T00:31:23;97160.34;;;17.31;100.00
11936;BME280;6027;48.576;9.180;2022-07-05T00:33:49;97167.09;;;17.34;100.00
11936;BME280;6027;48.576;9.180;2022-07-05T00:36:14;97163.38;;;17.35;100.00
11936;BME280;6027;48.576;9.180;2022-07-05T00:38:40;97162.34;;;17.36;100.00
11936;BME280;6027;48.576;9.180;2022-07-05T00:41:05;97161.75;;;17.34;100.00
11936;BME280;6027;48.576;9.180;2022-07-05T00:43:31;97161.31;;;17.37;100.00
11936;BME280;6027;48.576;9.180;2022-07-05T00:45:57;97155.75;;;17.38;100.00
11936;BME280;6027;48.576;9.180;2022-07-05T00:48:22;97150.81;;;17.35;100.00
11936;BME280;6027;48.576;9.180;2022-07-05T00:50:50;97157.38;;;17.39;100.00
11936;BME280;6027;48.576;9.180;2022-07-05T00:53:16;97154.53;;;17.34;100.00
11936;BME280;6027;48.576;9.180;2022-07-05T00:55:43;97160.66;;;17.41;100.00
11936;BME280;6027;48.576;9.180;2022-07-05T00:58:09;97157.38;;;17.39;100.00
11936;BME280;6027;48.576;9.180;2022-07-05T01:00:35;97172.03;;;17.37;100.00
11936;BME280;6027;48.576;9.180;2022-07-05T01:03:00;97178.00;;;17.32;100.00
11936;BME280;6027;48.576;9.180;2022-07-05T01:05:27;97178.38;;;17.42;100.00
11936;BME280;6027;48.576;9.180;2022-07-05T01:07:53;97171.59;;;17.40;100.00
11936;BME280;6027;48.576;9.180;2022-07-05T01:10:19;97186.72;;;17.27;100.00
11936;BME280;6027;48.576;9.180;2022-07-05T01:12:45;97174.16;;;17.28;100.00
11936;BME280;6027;48.576;9.180;2022-07-05T01:15:10;97178.25;;;17.31;100.00
11936;BME280;6027;48.576;9.180;2022-07-05T01:17:36;97172.53;;;17.27;100.00
11936;BME280;6027;48.576;9.180;2022-07-05T01:20:04;97171.28;;;17.30;100.00
11936;BME280;6027;48.576;9.180;2022-07-05T01:22:50;97169.28;;;17.18;100.00
11936;BME280;6027;48.576;9.180;2022-07-05T01:25:23;97166.88;;;17.10;100.00
11936;BME280;6027;48.576;9.180;2022-07-05T01:27:49;97169.81;;;16.96;100.00
11936;BME280;6027;48.576;9.180;2022-07-05T01:30:16;97165.63;;;16.75;100.00
11936;BME280;6027;48.576;9.180;2022-07-05T01:32:42;97163.78;;;16.75;100.00
11936;BME280;6027;48.576;9.180;2022-07-05T01:35:09;97171.84;;;16.62;100.00
11936;BME280;6027;48.576;9.180;2022-07-05T01:37:35;97174.59;;;16.42;100.00
11936;BME280;6027;48.576;9.180;2022-07-05T01:40:03;97177.88;;;16.44;100.00
11936;BME280;6027;48.576;9.180;2022-07-05T01:42:29;97179.28;;;16.53;100.00
11936;BME280;6027;48.576;9.180;2022-07-05T01:44:54;97173.50;;;16.56;100.00
11936;BME280;6027;48.576;9.180;2022-07-05T01:47:20;97169.38;;;16.61;100.00
11936;BME280;6027;48.576;9.180;2022-07-05T01:49:48;97180.69;;;16.69;100.00
11936;BME280;6027;48.576;9.180;2022-07-05T01:52:16;97181.72;;;16.62;100.00
11936;BME280;6027;48.576;9.180;2022-07-05T01:54:42;97183.41;;;16.49;100.00
11936;BME280;6027;48.576;9.180;2022-07-05T01:57:09;97185.69;;;16.46;100.00
11936;BME280;6027;48.576;9.180;2022-07-05T01:59:35;97183.84;;;16.40;100.00
11936;BME280;6027;48.576;9.180;2022-07-05T02:02:02;97179.75;;;16.37;100.00
11936;BME280;6027;48.576;9.180;2022-07-05T02:04:28;97178.34;;;16.35;100.00
11936;BME280;6027;48.576;9.180;2022-07-05T02:06:54;97179.75;;;16.37;100.00
11936;BME280;6027;48.576;9.180;2022-07-05T02:09:20;97175.00;;;16.39;100.00
11936;BME280;6027;48.576;9.180;2022-07-05T02:11:45;97176.84;;;16.45;100.00
11936;BME280;6027;48.576;9.180;2022-07-05T02:14:10;97180.50;;;16.57;100.00
11936;BME280;6027;48.576;9.180;2022-07-05T02:16:37;97173.06;;;16.59;100.00
11936;BME280;6027;48.576;9.180;2022-07-05T02:19:03;97164.44;;;16.57;100.00
11936;BME280;6027;48.576;9.180;2022-07-05T02:21:29;97171.22;;;16.60;100.00
11936;BME280;6027;48.576;9.180;2022-07-05T02:23:54;97165.06;;;16.59;100.00
11936;BME280;6027;48.576;9.180;2022-07-05T02:26:20;97168.97;;;16.64;100.00
11936;BME280;6027;48.576;9.180;2022-07-05T02:28:46;97167.53;;;16.61;100.00
11936;BME280;6027;48.576;9.180;2022-07-05T02:31:11;97170.25;;;16.54;100.00
11936;BME280;6027;48.576;9.180;2022-07-05T02:33:37;97165.53;;;16.50;100.00
11936;BME280;6027;48.576;9.180;2022-07-05T02:36:11;97161.84;;;16.44;100.00
11936;BME280;6027;48.576;9.180;2022-07-05T02:38:37;97177.47;;;16.41;100.00
11936;BME280;6027;48.576;9.180;2022-07-05T02:41:07;97170.69;;;16.38;100.00
11936;BME280;6027;48.576;9.180;2022-07-05T02:43:33;97177.13;;;16.31;100.00
11936;BME280;6027;48.576;9.180;2022-07-05T02:46:00;97176.03;;;16.38;100.00
11936;BME280;6027;48.576;9.180;2022-07-05T02:48:25;97173.78;;;16.42;100.00
11936;BME280;6027;48.576;9.180;2022-07-05T02:50:50;97181.78;;;16.42;100.00
11936;BME280;6027;48.576;9.180;2022-07-05T02:53:16;97173.16;;;16.46;100.00
11936;BME280;6027;48.576;9.180;2022-07-05T02:55:41;97183.22;;;16.51;100.00
11936;BME280;6027;48.576;9.180;2022-07-05T02:58:07;97179.94;;;16.49;100.00
11936;BME280;6027;48.576;9.180;2022-07-05T03:00:32;97190.00;;;16.47;100.00
11936;BME280;6027;48.576;9.180;2022-07-05T03:02:58;97183.06;;;16.33;100.00
11936;BME280;6027;48.576;9.180;2022-07-05T03:05:23;97186.53;;;16.40;100.00
11936;BME280;6027;48.576;9.180;2022-07-05T03:07:48;97184.66;;;16.47;100.00
11936;BME280;6027;48.576;9.180;2022-07-05T03:10:14;97189.38;;;16.45;100.00
11936;BME280;6027;48.576;9.180;2022-07-05T03:12:39;97184.72;;;16.27;100.00
11936;BME280;6027;48.576;9.180;2022-07-05T03:15:05;97186.16;;;16.23;100.00
11936;BME280;6027;48.576;9.180;2022-07-05T03:17:31;97193.56;;;16.21;100.00
11936;BME280;6027;48.576;9.180;2022-07-05T03:19:57;97190.53;;;16.11;100.00
11936;BME280;6027;48.576;9.180;2022-07-05T03:22:22;97191.16;;;16.13;100.00
11936;BME280;6027;48.576;9.180;2022-07-05T03:24:47;97193.63;;;16.08;100.00
11936;BME280;6027;48.576;9.180;2022-07-05T03:27:13;97191.56;;;16.03;100.00
11936;BME280;6027;48.576;9.180;2022-07-05T03:29:38;97199.81;;;15.95;100.00
11936;BME280;6027;48.576;9.180;2022-07-05T03:32:04;97194.25;;;15.83;100.00
11936;BME280;6027;48.576;9.180;2022-07-05T03:34:29;97208.84;;;15.94;100.00
11936;BME280;6027;48.576;9.180;2022-07-05T03:36:55;97204.75;;;15.92;100.00
11936;BME280;6027;48.576;9.180;2022-07-05T03:39:20;97209.88;;;15.86;100.00
11936;BME280;6027;48.576;9.180;2022-07-05T03:41:46;97206.59;;;15.84;100.00
11936;BME280;6027;48.576;9.180;2022-07-05T03:44:11;97213.56;;;15.85;100.00
11936;BME280;6027;48.576;9.180;2022-07-05T03:46:37;97219.53;;;15.81;100.00
11936;BME280;6027;48.576;9.180;2022-07-05T03:49:02;97214.00;;;15.76;100.00
11936;BME280;6027;48.576;9.180;2022-07-05T03:51:28;97223.84;;;15.69;100.00
11936;BME280;6027;48.576;9.180;2022-07-05T03:53:54;97223.22;;;15.67;100.00
11936;BME280;6027;48.576;9.180;2022-07-05T03:56:19;97217.66;;;15.55;100.00
11936;BME280;6027;48.576;9.180;2022-07-05T03:58:49;97220.97;;;15.64;100.00
11936;BME280;6027;48.576;9.180;2022-07-05T04:01:15;97227.34;;;15.69;100.00
11936;BME280;6027;48.576;9.180;2022-07-05T04:03:41;97226.13;;;15.72;100.00
11936;BME280;6027;48.576;9.180;2022-07-05T04:06:08;97226.53;;;15.75;100.00
11936;BME280;6027;48.576;9.180;2022-07-05T04:08:33;97231.44;;;15.78;100.00
11936;BME280;6027;48.576;9.180;2022-07-05T04:10:59;97228.34;;;15.81;100.00
11936;BME280;6027;48.576;9.180;2022-07-05T04:13:24;97237.59;;;15.79;100.00
11936;BME280;6027;48.576;9.180;2022-07-05T04:15:50;97233.50;;;15.83;100.00
11936;BME280;6027;48.576;9.180;2022-07-05T04:18:15;97218.91;;;15.79;100.00
11936;BME280;6027;48.576;9.180;2022-07-05T04:20:40;97235.13;;;15.84;100.00
11936;BME280;6027;48.576;9.180;2022-07-05T04:23:06;97249.53;;;15.76;100.00
11936;BME280;6027;48.576;9.180;2022-07-05T04:25:31;97241.53;;;15.76;100.00
11936;BME280;6027;48.576;9.180;2022-07-05T04:27:57;97250.56;;;15.75;100.00
11936;BME280;6027;48.576;9.180;2022-07-05T04:30:24;97247.88;;;15.75;100.00
11936;BME280;6027;48.576;9.180;2022-07-05T04:32:50;97254.06;;;15.76;100.00
11936;BME280;6027;48.576;9.180;2022-07-05T04:35:16;97248.47;;;15.51;100.00
11936;BME280;6027;48.576;9.180;2022-07-05T04:37:43;97247.47;;;15.59;100.00
11936;BME280;6027;48.576;9.180;2022-07-05T04:40:11;97249.06;;;15.53;100.00
11936;BME280;6027;48.576;9.180;2022-07-05T04:42:37;97244.75;;;15.45;100.00
11936;BME280;6027;48.576;9.180;2022-07-05T04:45:04;97247.84;;;15.49;100.00
11936;BME280;6027;48.576;9.180;2022-07-05T04:47:29;97251.28;;;15.30;100.00
11936;BME280;6027;48.576;9.180;2022-07-05T04:49:56;97256.84;;;15.28;100.00
11936;BME280;6027;48.576;9.180;2022-07-05T04:52:24;97253.53;;;15.13;100.00
11936;BME280;6027;48.576;9.180;2022-07-05T04:54:50;97257.00;;;15.13;100.00
11936;BME280;6027;48.576;9.180;2022-07-05T04:57:16;97257.66;;;15.29;100.00
11936;BME280;6027;48.576;9.180;2022-07-05T04:59:41;97255.41;;;15.32;100.00
11936;BME280;6027;48.576;9.180;2022-07-05T05:02:07;97262.63;;;15.38;100.00
11936;BME280;6027;48.576;9.180;2022-07-05T05:04:32;97257.88;;;15.47;100.00
11936;BME280;6027;48.576;9.180;2022-07-05T05:06:58;97259.72;;;15.46;100.00
11936;BME280;6027;48.576;9.180;2022-07-05T05:09:24;97254.78;;;15.43;100.00
11936;BME280;6027;48.576;9.180;2022-07-05T05:11:49;97253.16;;;15.49;100.00
11936;BME280;6027;48.576;9.180;2022-07-05T05:14:15;97258.31;;;15.50;100.00
11936;BME280;6027;48.576;9.180;2022-07-05T05:16:40;97252.81;;;15.59;100.00
11936;BME280;6027;48.576;9.180;2022-07-05T05:19:06;97244.56;;;15.60;100.00
11936;BME280;6027;48.576;9.180;2022-07-05T05:21:32;97253.22;;;15.56;100.00
11936;BME280;6027;48.576;9.180;2022-07-05T05:23:57;97248.72;;;15.56;100.00
11936;BME280;6027;48.576;9.180;2022-07-05T05:26:23;97258.09;;;15.52;100.00
11936;BME280;6027;48.576;9.180;2022-07-05T05:28:48;97254.81;;;15.50;100.00
11936;BME280;6027;48.576;9.180;2022-07-05T05:31:14;97264.28;;;15.59;100.00
11936;BME280;6027;48.576;9.180;2022-07-05T05:33:40;97265.97;;;15.73;100.00
11936;BME280;6027;48.576;9.180;2022-07-05T05:36:05;97268.22;;;15.76;100.00
11936;BME280;6027;48.576;9.180;2022-07-05T05:38:31;97267.59;;;15.81;100.00
11936;BME280;6027;48.576;9.180;2022-07-05T05:40:57;97274.56;;;15.88;100.00
11936;BME280;6027;48.576;9.180;2022-07-05T05:43:22;97274.16;;;15.92;100.00
11936;BME280;6027;48.576;9.180;2022-07-05T05:45:48;97279.28;;;16.00;100.00
11936;BME280;6027;48.576;9.180;2022-07-05T05:48:13;97278.47;;;15.99;100.00
11936;BME280;6027;48.576;9.180;2022-07-05T05:50:39;97276.63;;;16.00;100.00
11936;BME280;6027;48.576;9.180;2022-07-05T05:53:05;97280.09;;;16.00;100.00
11936;BME280;6027;48.576;9.180;2022-07-05T05:55:31;97283.59;;;16.01;100.00
11936;BME280;6027;48.576;9.180;2022-07-05T05:57:57;97285.25;;;16.02;100.00
11936;BME280;6027;48.576;9.180;2022-07-05T06:00:23;97286.91;;;16.03;100.00
11936;BME280;6027;48.576;9.180;2022-07-05T06:02:50;97289.56;;;16.03;100.00
11936;BME280;6027;48.576;9.180;2022-07-05T06:05:16;97288.34;;;16.05;100.00
11936;BME280;6027;48.576;9.180;2022-07-05T06:10:09;97298.19;;;16.05;100.00
11936;BME280;6027;48.576;9.180;2022-07-05T06:12:34;97293.69;;;16.12;100.00
11936;BME280;6027;48.576;9.180;2022-07-05T06:15:00;97294.28;;;16.20;100.00
11936;BME280;6027;48.576;9.180;2022-07-05T06:17:25;97299.81;;;16.19;100.00
11936;BME280;6027;48.576;9.180;2022-07-05T06:19:51;97292.00;;;16.31;100.00
11936;BME280;6027;48.576;9.180;2022-07-05T06:22:16;97301.66;;;16.38;100.00
11936;BME280;6027;48.576;9.180;2022-07-05T06:24:42;97296.72;;;16.48;100.00
11936;BME280;6027;48.576;9.180;2022-07-05T06:27:08;97304.09;;;16.46;100.00
11936;BME280;6027;48.576;9.180;2022-07-05T06:29:33;97301.84;;;16.50;100.00
11936;BME280;6027;48.576;9.180;2022-07-05T06:31:59;97308.44;;;16.54;100.00
11936;BME280;6027;48.576;9.180;2022-07-05T06:34:25;97304.09;;;16.46;100.00
11936;BME280;6027;48.576;9.180;2022-07-05T06:36:50;97305.50;;;16.55;100.00
11936;BME280;6027;48.576;9.180;2022-07-05T06:39:16;97302.22;;;16.60;100.00
11936;BME280;6027;48.576;9.180;2022-07-05T06:41:41;97306.97;;;16.65;100.00
11936;BME280;6027;48.576;9.180;2022-07-05T06:44:07;97308.56;;;16.79;100.00
11936;BME280;6027;48.576;9.180;2022-07-05T06:46:32;97310.19;;;16.86;100.00
11936;BME280;6027;48.576;9.180;2022-07-05T06:48:58;97310.19;;;16.93;100.00
11936;BME280;6027;48.576;9.180;2022-07-05T06:51:23;97317.16;;;16.94;100.00
11936;BME280;6027;48.576;9.180;2022-07-05T06:53:48;97297.66;;;16.87;100.00
11936;BME280;6027;48.576;9.180;2022-07-05T06:56:14;97317.56;;;16.98;100.00
11936;BME280;6027;48.576;9.180;2022-07-05T06:58:39;97320.63;;;17.08;100.00
11936;BME280;6027;48.576;9.180;2022-07-05T07:01:06;97321.59;;;17.13;100.00
11936;BME280;6027;48.576;9.180;2022-07-05T07:03:31;97328.56;;;17.21;100.00
11936;BME280;6027;48.576;9.180;2022-07-05T07:05:57;97322.53;;;17.32;100.00
11936;BME280;6027;48.576;9.180;2022-07-05T07:08:22;97320.31;;;17.29;100.00
11936;BME280;6027;48.576;9.180;2022-07-05T07:11:06;97319.09;;;17.25;100.00
11936;BME280;6027;48.576;9.180;2022-07-05T07:13:32;97313.25;;;17.35;100.00
11936;BME280;6027;48.576;9.180;2022-07-05T07:15:57;97315.81;;;17.23;100.00
11936;BME280;6027;48.576;9.180;2022-07-05T07:18:23;97320.69;;;17.33;100.00
11936;BME280;6027;48.576;9.180;2022-07-05T07:20:48;97320.25;;;17.42;100.00
11936;BME280;6027;48.576;9.180;2022-07-05T07:23:14;97312.81;;;17.44;100.00
11936;BME280;6027;48.576;9.180;2022-07-05T07:25:42;97314.38;;;17.58;100.00
11936;BME280;6027;48.576;9.180;2022-07-05T07:28:07;97317.44;;;17.69;100.00
11936;BME280;6027;48.576;9.180;2022-07-05T07:30:32;97320.41;;;17.85;100.00
11936;BME280;6027;48.576;9.180;2022-07-05T07:32:58;97316.19;;;17.96;100.00
11936;BME280;6027;48.576;9.180;2022-07-05T07:35:24;97317.03;;;17.97;100.00
11936;BME280;6027;48.576;9.180;2022-07-05T07:37:50;97318.94;;;17.89;100.00
11936;BME280;6027;48.576;9.180;2022-07-05T07:40:15;97328.09;;;18.07;100.00
11936;BME280;6027;48.576;9.180;2022-07-05T07:42:41;97321.34;;;18.22;100.00
11936;BME280;6027;48.576;9.180;2022-07-05T07:45:07;97322.81;;;18.18;100.00
11936;BME280;6027;48.576;9.180;2022-07-05T07:47:34;97323.00;;;18.23;100.00
11936;BME280;6027;48.576;9.180;2022-07-05T07:50:01;97330.75;;;18.32;100.00
11936;BME280;6027;48.576;9.180;2022-07-05T07:52:26;97324.13;;;18.34;100.00
11936;BME280;6027;48.576;9.180;2022-07-05T07:54:52;97328.78;;;18.45;100.00
11936;BME280;6027;48.576;9.180;2022-07-05T07:57:18;97326.31;;;18.44;100.00
11936;BME280;6027;48.576;9.180;2022-07-05T07:59:44;97321.69;;;18.51;100.00
11936;BME280;6027;48.576;9.180;2022-07-05T08:02:09;97338.53;;;18.65;100.00
11936;BME280;6027;48.576;9.180;2022-07-05T08:04:35;97326.38;;;18.62;100.00
11936;BME280;6027;48.576;9.180;2022-07-05T08:07:01;97339.41;;;18.77;100.00
11936;BME280;6027;48.576;9.180;2022-07-05T08:09:29;97335.25;;;18.81;100.00
11936;BME280;6027;48.576;9.180;2022-07-05T08:11:55;97342.34;;;18.93;100.00
11936;BME280;6027;48.576;9.180;2022-07-05T08:14:21;97334.06;;;18.95;100.00
11936;BME280;6027;48.576;9.180;2022-07-05T08:16:48;97337.03;;;19.05;100.00
11936;BME280;6027;48.576;9.180;2022-07-05T08:19:14;97332.63;;;19.11;100.00
11936;BME280;6027;48.576;9.180;2022-07-05T08:21:58;97335.25;;;19.17;100.00
11936;BME280;6027;48.576;9.180;2022-07-05T08:24:24;97326.16;;;19.18;100.00
11936;BME280;6027;48.576;9.180;2022-07-05T08:26:49;97338.91;;;19.23;100.00
11936;BME280;6027;48.576;9.180;2022-07-05T08:29:14;97333.44;;;19.29;100.00
11936;BME280;6027;48.576;9.180;2022-07-05T08:31:41;97331.16;;;19.45;100.00
11936;BME280;6027;48.576;9.180;2022-07-05T08:34:07;97334.03;;;19.50;100.00
11936;BME280;6027;48.576;9.180;2022-07-05T08:36:33;97326.72;;;19.69;100.00
11936;BME280;6027;48.576;9.180;2022-07-05T08:38:58;97325.69;;;19.70;100.00
11936;BME280;6027;48.576;9.180;2022-07-05T08:41:24;97327.47;;;19.76;100.00
11936;BME280;6027;48.576;9.180;2022-07-05T08:43:50;97319.41;;;19.87;100.00
11936;BME280;6027;48.576;9.180;2022-07-05T08:46:19;97321.22;;;20.05;100.00
11936;BME280;6027;48.576;9.180;2022-07-05T08:48:49;97315.97;;;20.22;100.00
11936;BME280;6027;48.576;9.180;2022-07-05T08:51:20;97320.06;;;20.24;100.00
11936;BME280;6027;48.576;9.180;2022-07-05T08:53:51;97319.72;;;20.21;100.00
11936;BME280;6027;48.576;9.180;2022-07-05T08:56:17;97322.53;;;20.26;100.00
11936;BME280;6027;48.576;9.180;2022-07-05T08:58:43;97326.50;;;20.23;100.00
11936;BME280;6027;48.576;9.180;2022-07-05T09:01:10;97328.03;;;20.31;100.00
11936;BME280;6027;48.576;9.180;2022-07-05T09:06:08;97321.75;;;20.49;100.00
11936;BME280;6027;48.576;9.180;2022-07-05T09:08:36;97321.16;;;20.47;100.00
11936;BME280;6027;48.576;9.180;2022-07-05T09:11:16;97320.69;;;20.61;100.00
11936;BME280;6027;48.576;9.180;2022-07-05T09:13:43;97328.75;;;20.61;100.00
11936;BME280;6027;48.576;9.180;2022-07-05T09:16:10;97318.69;;;20.68;100.00
11936;BME280;6027;48.576;9.180;2022-07-05T09:18:53;97315.06;;;20.75;93.44
11936;BME280;6027;48.576;9.180;2022-07-05T09:21:26;97323.81;;;20.93;90.73
11936;BME280;6027;48.576;9.180;2022-07-05T09:24:04;97324.53;;;20.89;91.94
11936;BME280;6027;48.576;9.180;2022-07-05T09:29:11;97326.38;;;21.00;96.98
11936;BME280;6027;48.576;9.180;2022-07-05T09:31:39;97320.63;;;21.08;79.99
11936;BME280;6027;48.576;9.180;2022-07-05T09:34:09;97320.28;;;21.16;78.50
11936;BME280;6027;48.576;9.180;2022-07-05T09:36:55;97322.97;;;21.16;76.58
11936;BME280;6027;48.576;9.180;2022-07-05T09:42:20;97326.84;;;21.49;75.15
11936;BME280;6027;48.576;9.180;2022-07-05T09:44:50;97330.72;;;21.53;75.15
11936;BME280;6027;48.576;9.180;2022-07-05T09:47:18;97328.97;;;21.47;74.82
11936;BME280;6027;48.576;9.180;2022-07-05T09:49:54;97315.38;;;21.42;75.35
11936;BME280;6027;48.576;9.180;2022-07-05T09:55:07;97335.31;;;21.69;73.78
11936;BME280;6027;48.576;9.180;2022-07-05T09:57:34;97321.69;;;21.76;68.80
11936;BME280;6027;48.576;9.180;2022-07-05T10:00:05;97325.19;;;21.76;65.49
11936;BME280;6027;48.576;9.180;2022-07-05T10:03:00;97323.16;;;21.83;74.25
11936;BME280;6027;48.576;9.180;2022-07-05T10:05:31;97325.50;;;21.91;73.53
11936;BME280;6027;48.576;9.180;2022-07-05T10:07:59;97325.69;;;22.01;69.43
11936;BME280;6027;48.576;9.180;2022-07-05T10:10:27;97326.94;;;21.99;63.39
11936;BME280;6027;48.576;9.180;2022-07-05T10:12:55;97319.66;;;22.11;61.75
11936;BME280;6027;48.576;9.180;2022-07-05T10:15:29;97328.22;;;22.25;62.50
11936;BME280;6027;48.576;9.180;2022-07-05T10:18:05;97328.38;;;22.35;56.77
11936;BME280;6027;48.576;9.180;2022-07-05T10:20:39;97323.97;;;22.29;59.66
11936;BME280;6027;48.576;9.180;2022-07-05T10:23:16;97333.63;;;22.25;63.23
11936;BME280;6027;48.576;9.180;2022-07-05T10:25:45;97325.06;;;21.99;57.17
11936;BME280;6027;48.576;9.180;2022-07-05T10:28:14;97325.28;;;22.10;57.19
11936;BME280;6027;48.576;9.180;2022-07-05T10:30:39;97327.00;;;22.16;57.20
11936;BME280;6027;48.576;9.180;2022-07-05T10:33:07;97327.31;;;22.19;53.24
11936;BME280;6027;48.576;9.180;2022-07-05T10:35:33;97313.19;;;22.29;49.08
11936;BME280;6027;48.576;9.180;2022-07-05T10:37:59;97329.03;;;22.25;56.94
11936;BME280;6027;48.576;9.180;2022-07-05T10:40:26;97317.53;;;22.30;56.61
11936;BME280;6027;48.576;9.180;2022-07-05T10:42:59;97318.56;;;22.46;52.17
11936;BME280;6027;48.576;9.180;2022-07-05T10:45:32;97312.66;;;22.65;51.49
11936;BME280;6027;48.576;9.180;2022-07-05T10:48:20;97310.09;;;22.75;50.12
11936;BME280;6027;48.576;9.180;2022-07-05T10:50:53;97306.44;;;22.82;50.13
11936;BME280;6027;48.576;9.180;2022-07-05T10:58:18;97312.34;;;23.00;52.70
11936;BME280;6027;48.576;9.180;2022-07-05T11:00:46;97315.47;;;22.92;51.97
11936;BME280;6027;48.576;9.180;2022-07-05T11:03:54;97315.28;;;22.77;51.05
11936;BME280;6027;48.576;9.180;2022-07-05T11:06:41;97317.31;;;22.70;56.97
11936;BME280;6027;48.576;9.180;2022-07-05T11:11:44;97311.22;;;22.96;46.51
11936;BME280;6027;48.576;9.180;2022-07-05T11:16:44;97319.88;;;22.98;49.95
11936;BME280;6027;48.576;9.180;2022-07-05T11:19:13;97316.81;;;23.12;47.67
11936;BME280;6027;48.576;9.180;2022-07-05T11:22:00;97317.81;;;23.27;44.84
11936;BME280;6027;48.576;9.180;2022-07-05T11:24:35;97312.47;;;23.32;42.55
11936;BME280;6027;48.576;9.180;2022-07-05T11:27:03;97316.28;;;23.36;44.15
11936;BME280;6027;48.576;9.180;2022-07-05T11:29:47;97313.34;;;23.38;42.81
11936;BME280;6027;48.576;9.180;2022-07-05T11:34:48;97309.88;;;23.42;46.05
11936;BME280;6027;48.576;9.180;2022-07-05T11:39:40;97319.81;;;23.59;49.26
11936;BME280;6027;48.576;9.180;2022-07-05T11:42:05;97311.16;;;23.57;47.08
11936;BME280;6027;48.576;9.180;2022-07-05T11:44:33;97310.72;;;23.70;45.54
11936;BME280;6027;48.576;9.180;2022-07-05T11:46:59;97293.59;;;23.86;44.19
11936;BME280;6027;48.576;9.180;2022-07-05T11:49:26;97305.53;;;23.90;44.62
11936;BME280;6027;48.576;9.180;2022-07-05T11:52:02;97299.09;;;23.96;43.99
11936;BME280;6027;48.576;9.180;2022-07-05T11:54:32;97307.78;;;23.98;41.82
11936;BME280;6027;48.576;9.180;2022-07-05T11:57:00;97292.56;;;23.92;41.86
11936;BME280;6027;48.576;9.180;2022-07-05T11:59:26;97302.63;;;23.97;43.65
11936;BME280;6027;48.576;9.180;2022-07-05T12:01:52;97293.63;;;23.91;43.50
11936;BME280;6027;48.576;9.180;2022-07-05T12:04:30;97284.94;;;23.84;46.69
11936;BME280;6027;48.576;9.180;2022-07-05T12:06:56;97289.72;;;24.04;42.90
11936;BME280;6027;48.576;9.180;2022-07-05T12:09:32;97283.25;;;24.10;41.82
11936;BME280;6027;48.576;9.180;2022-07-05T12:12:20;97276.19;;;24.04;42.92
11936;BME280;6027;48.576;9.180;2022-07-05T12:15:05;97283.75;;;24.07;40.85
11936;BME280;6027;48.576;9.180;2022-07-05T12:17:33;97284.00;;;24.00;40.50
11936;BME280;6027;48.576;9.180;2022-07-05T12:19:59;97284.75;;;23.96;40.15
11936;BME280;6027;48.576;9.180;2022-07-05T12:24:59;97279.00;;;24.19;38.98
11936;BME280;6027;48.576;9.180;2022-07-05T12:27:31;97276.03;;;24.21;40.50
11936;BME280;6027;48.576;9.180;2022-07-05T12:29:57;97278.25;;;24.24;43.63
11936;BME280;6027;48.576;9.180;2022-07-05T12:32:23;97273.94;;;24.28;44.89
11936;BME280;6027;48.576;9.180;2022-07-05T12:34:48;97280.47;;;24.32;41.49
11936;BME280;6027;48.576;9.180;2022-07-05T12:37:21;97273.16;;;24.32;44.09
11936;BME280;6027;48.576;9.180;2022-07-05T12:40:02;97280.00;;;24.40;46.16
11936;BME280;6027;48.576;9.180;2022-07-05T12:42:37;97274.34;;;24.47;45.37
11936;BME280;6027;48.576;9.180;2022-07-05T12:45:11;97277.75;;;24.32;41.94
11936;BME280;6027;48.576;9.180;2022-07-05T12:47:58;97266.28;;;24.57;43.54
11936;BME280;6027;48.576;9.180;2022-07-05T12:50:26;97271.41;;;24.53;43.86
11936;BME280;6027;48.576;9.180;2022-07-05T12:53:02;97266.59;;;24.65;42.83
11936;BME280;6027;48.576;9.180;2022-07-05T12:55:48;97270.94;;;24.66;42.32
11936;BME280;6027;48.576;9.180;2022-07-05T12:58:31;97270.94;;;24.66;44.31
11936;BME280;6027;48.576;9.180;2022-07-05T13:00:57;97274.19;;;24.68;39.69
11936;BME280;6027;48.576;9.180;2022-07-05T13:03:23;97276.16;;;24.78;49.87
11936;BME280;6027;48.576;9.180;2022-07-05T13:06:01;97275.91;;;24.79;44.54
11936;BME280;6027;48.576;9.180;2022-07-05T13:08:28;97270.22;;;24.86;42.81
11936;BME280;6027;48.576;9.180;2022-07-05T13:10:54;97272.38;;;24.84;44.43
11936;BME280;6027;48.576;9.180;2022-07-05T13:13:19;97278.09;;;24.88;43.91
11936;BME280;6027;48.576;9.180;2022-07-05T13:15:45;97272.50;;;25.04;45.27
11936;BME280;6027;48.576;9.180;2022-07-05T13:18:11;97270.34;;;25.01;43.87
11936;BME280;6027;48.576;9.180;2022-07-05T13:20:36;97279.81;;;25.04;43.67
11936;BME280;6027;48.576;9.180;2022-07-05T13:23:02;97274.41;;;24.99;41.17
11936;BME280;6027;48.576;9.180;2022-07-05T13:25:27;97279.16;;;24.87;43.01
11936;BME280;6027;48.576;9.180;2022-07-05T13:27:53;97273.47;;;24.83;45.13
11936;BME280;6027;48.576;9.180;2022-07-05T13:30:20;97276.16;;;24.83;45.09
11936;BME280;6027;48.576;9.180;2022-07-05T13:32:46;97266.59;;;24.65;42.97
11936;BME280;6027;48.576;9.180;2022-07-05T13:35:11;97273.63;;;24.66;41.66
11936;BME280;6027;48.576;9.180;2022-07-05T13:37:37;97274.50;;;24.72;40.35